Aérodrome :
LOGIN :

S'inscrire | Disclaimer

   EN    FR    IT 

 










Légende :    VFR   VFR Marginal   IFR   IFR Intensif   IFR Très Intensif
Visi : 
Plafond : 
>= 8 km
>= 3000ft
5 à 8 km
1000 à 3000 ft
1500m à 5 km
500 à 1000 ft
800 à 1500m
200 à 500 ft
< 800m
< 200 ft
Symboles :   Orages  Brouillard  Fortes neiges  Fortes précipitations  Vent > 20 kt
SIGMETs :   Divers  Orages  Givrage  Turbulence  Onde Orograph.  Cendres Volcan.







- Altitude de l'aérodrome : 779 ft
- Code IATA : CMF
- Voir les cartes d'approche


LFLB - Chambery / Aix-Les-Bains

DERNIER METAR :
  • 231200Z AUTO 33006KT 300V360 CAVOK 13/07 Q1010 TEMPO SCT025TCU SCT030 BKN060

METARs EXPIRÉS :
  • 231130Z AUTO 33007KT 290V360 9999 FEW025 SCT110 13/06 Q1011 TEMPO SCT025TCU SCT030 BKN060
  • 231100Z AUTO 35010KT 9999 SCT026 12/06 Q1011 TEMPO BKN030TCU
  • 231030Z AUTO 35010KT 9999 BKN024 12/06 Q1011 TEMPO BKN030TCU
  • 231000Z AUTO 35010KT 9999 BKN023 BKN031 11/06 Q1011 NOSIG
  • 230930Z AUTO 35010KT 9999 BKN024 BKN030 11/06 Q1011 NOSIG
  • 230900Z AUTO 01011KT 9999 BKN025 10/06 Q1012 NOSIG

TAF TAF LFLB
Valide du 23 à 12h jusqu'au 24 à 12h UTC


231100Z 2312/2412 34010KT 9999 BKN030
PROB40
TEMPO 2312/2321 -SHRA SCT025TCU SCT030 BKN060
PROB30
TEMPO 2315/2318 VRB15G25KT 4000 TSRA SCT030CB BKN055
TEMPO 2321/2412 -RA SCT020 OVC050
Pas de NOTAMs connus pour ce terrain.
3 SIGMETs publiés pour la FIR Marseille (LFMM) :
 
Orages noyés dans la masse
LFMM SIGMET 9 VALID 231140/231300 LFPW
LFMM MARSEILLE FIR/UIR EMBD TS OBS AT 1140Z WI N4300 E00515 - N4330 E00515 - N4330 E00645 - N4245 E00645 TOP FL280 STNR NC=
Turbulence forte
LFMM SIGMET 7 VALID 231000/231300 LFPW
LFMM MARSEILLE FIR/UIR SEV TURB FCST WI N4345 E00245 - N4515 E00245 - N4600 E00345 - N4515 E00545 - N4345 E00530 SFC/FL060 STNR NC=
Orages noyés dans la masse
LFMM SIGMET 10 VALID 231200/231400 LFPW
LFMM MARSEILLE FIR/UIR EMBD TS OBS WI N4330 E00245 - N4600 E00300 - N4615 E00430 - N4415 E00445 - N4230 E00315 TOP FL320 STNR NC=



MET'MAP, la Météo Aéronautique d'un coup d'oeil ! - Copyright ORBIFLY Décembre 2007 - Disclaimer

ORBIFLY MET'MAP TEAM :

Programmation & Développement : Alexandra Zaïnal
Conception & Développement : Baudouin d'Aumeries
Co-Programmation & Développement : Marc-Olivier Méhu
Soutien technique & logistique : Manuel Goepfert

Contact : metmap@orbifly.com




SOURCES & CREDITS :

   NOAA